RAM811D EDDF-GMMN
Flight info
| Callsign | RAM811D |
|---|---|
| Flight time | N/A |
| Altitude | 37000 |
| Route | ANEKI2L ANEKI Y163 HERBI Y164 MOPAN DCT LUTIX DCT BENOT DCT NEMOS DCT NINTU DCT MEBAK DCT REPSI DCT LERGA DCT MINSO DCT NARAK DCT AGN DCT MAQAB DCT TIVLI DCT ELSAP DCT ZAR DCT EXEMU DCT PISUS DCT EDIMU DCT ADUXO DCT NUSGO DCT OBIBO/N0452F390 DCT NASOS L27 BLN DCT MGA DCT PIMOS DCT GALTO UB11 TUSOR |
| Aircraft | B738/M-SDE2E3FGHIRWXY/LB1 |
Departure
| Time | N/A |
|---|---|
| Airport | Frankfurt Main Airport (EDDF) |
Arrival
| Time | 2026-05-07 19:44 |
|---|---|
| Airport | Mohammed V International Airport (GMMN) |
| Time | Latitude | Longitude | Altitude | Speed | Heading |
|---|---|---|---|---|---|
| 2026-05-07 19:31 | 33.33046 | -7.15126 | 10292 ft | 269 kts | 211° |
| 2026-05-07 19:32 | 33.31508 | -7.16171 | 10172 ft | 260 kts | 210° |
| 2026-05-07 19:32 | 33.29958 | -7.17224 | 10047 ft | 252 kts | 211° |
| 2026-05-07 19:32 | 33.28465 | -7.18237 | 9907 ft | 244 kts | 211° |
| 2026-05-07 19:32 | 33.26988 | -7.19240 | 9606 ft | 243 kts | 211° |
| 2026-05-07 19:33 | 33.25522 | -7.20236 | 9331 ft | 242 kts | 211° |
| 2026-05-07 19:33 | 33.24060 | -7.21229 | 9036 ft | 241 kts | 210° |
| 2026-05-07 19:33 | 33.22598 | -7.22213 | 8654 ft | 244 kts | 210° |
| 2026-05-07 19:33 | 33.21082 | -7.23209 | 8126 ft | 252 kts | 209° |
| 2026-05-07 19:34 | 33.19532 | -7.24230 | 7741 ft | 255 kts | 209° |
| 2026-05-07 19:34 | 33.17985 | -7.25254 | 7471 ft | 253 kts | 209° |
| 2026-05-07 19:34 | 33.16963 | -7.25932 | 7289 ft | 253 kts | 209° |
| 2026-05-07 19:34 | 33.15426 | -7.26957 | 6963 ft | 254 kts | 209° |
| 2026-05-07 19:35 | 33.13892 | -7.27989 | 6697 ft | 252 kts | 209° |
| 2026-05-07 19:35 | 33.12368 | -7.29023 | 6397 ft | 252 kts | 209° |
| 2026-05-07 19:35 | 33.10876 | -7.30152 | 5988 ft | 256 kts | 222° |
| 2026-05-07 19:35 | 33.09895 | -7.31916 | 5672 ft | 259 kts | 250° |
| 2026-05-07 19:36 | 33.09479 | -7.34005 | 5375 ft | 259 kts | 258° |
| 2026-05-07 19:36 | 33.09155 | -7.36064 | 5062 ft | 260 kts | 259° |
| 2026-05-07 19:36 | 33.08811 | -7.38241 | 4737 ft | 260 kts | 261° |
| 2026-05-07 19:36 | 33.08867 | -7.40373 | 4397 ft | 258 kts | 289° |
| 2026-05-07 19:37 | 33.09646 | -7.42264 | 4171 ft | 251 kts | 302° |
| 2026-05-07 19:37 | 33.10560 | -7.44030 | 4031 ft | 249 kts | 303° |
| 2026-05-07 19:37 | 33.11482 | -7.45776 | 4003 ft | 249 kts | 304° |
| 2026-05-07 19:37 | 33.12393 | -7.47497 | 4013 ft | 247 kts | 304° |
| 2026-05-07 19:38 | 33.13288 | -7.49198 | 3993 ft | 236 kts | 304° |
| 2026-05-07 19:38 | 33.14179 | -7.50759 | 3984 ft | 220 kts | 318° |
| 2026-05-07 19:38 | 33.15466 | -7.51584 | 4014 ft | 207 kts | 341° |
| 2026-05-07 19:38 | 33.16784 | -7.52215 | 4016 ft | 198 kts | 340° |
| 2026-05-07 19:39 | 33.18042 | -7.52750 | 4005 ft | 187 kts | 343° |
| 2026-05-07 19:39 | 33.19294 | -7.53208 | 3899 ft | 189 kts | 345° |
| 2026-05-07 19:39 | 33.20558 | -7.53648 | 3666 ft | 188 kts | 345° |
| 2026-05-07 19:39 | 33.21806 | -7.54077 | 3416 ft | 185 kts | 345° |
| 2026-05-07 19:40 | 33.23031 | -7.54498 | 3183 ft | 181 kts | 346° |
| 2026-05-07 19:40 | 33.24228 | -7.54908 | 2922 ft | 177 kts | 345° |
| 2026-05-07 19:40 | 33.25381 | -7.55306 | 2683 ft | 168 kts | 346° |
| 2026-05-07 19:40 | 33.26476 | -7.55682 | 2458 ft | 160 kts | 346° |
| 2026-05-07 19:41 | 33.27524 | -7.56041 | 2276 ft | 159 kts | 346° |
| 2026-05-07 19:41 | 33.28620 | -7.56416 | 2063 ft | 167 kts | 346° |
| 2026-05-07 19:41 | 33.29751 | -7.56805 | 1833 ft | 168 kts | 346° |
| 2026-05-07 19:41 | 33.30840 | -7.57180 | 1608 ft | 156 kts | 346° |
| 2026-05-07 19:42 | 33.31808 | -7.57524 | 1430 ft | 134 kts | 345° |
| 2026-05-07 19:42 | 33.32670 | -7.57841 | 1216 ft | 131 kts | 346° |
| 2026-05-07 19:42 | 33.33523 | -7.58125 | 1032 ft | 125 kts | 347° |
| 2026-05-07 19:42 | 33.34360 | -7.58401 | 873 ft | 125 kts | 346° |
| 2026-05-07 19:43 | 33.35207 | -7.58688 | 670 ft | 129 kts | 346° |
| 2026-05-07 19:43 | 33.35996 | -7.58951 | 650 ft | 104 kts | 344° |
| 2026-05-07 19:43 | 33.36572 | -7.59152 | 649 ft | 70 kts | 342° |
| 2026-05-07 19:43 | 33.36985 | -7.59291 | 651 ft | 53 kts | 342° |
| 2026-05-07 19:44 | 33.37311 | -7.59406 | 653 ft | 45 kts | 344° |
| 2026-05-07 19:44 | 33.37586 | -7.59498 | 652 ft | 30 kts | 344° |
| 2026-05-07 19:44 | 33.37704 | -7.59511 | 653 ft | 11 kts | 39° |
| 2026-05-07 19:44 | 33.37733 | -7.59427 | 653 ft | 11 kts | 72° |
| 2026-05-07 19:45 | 33.37757 | -7.59330 | 650 ft | 12 kts | 73° |
| 2026-05-07 19:45 | 33.37783 | -7.59226 | 646 ft | 15 kts | 73° |
| 2026-05-07 19:45 | 33.37812 | -7.59105 | 644 ft | 15 kts | 73° |
| 2026-05-07 19:45 | 33.37841 | -7.58990 | 649 ft | 14 kts | 73° |
| 2026-05-07 19:46 | 33.37862 | -7.58902 | 653 ft | 0 kts | 73° |
| 2026-05-07 19:46 | 33.37865 | -7.58891 | 654 ft | 3 kts | 73° |
| 2026-05-07 19:47 | 33.37880 | -7.58832 | 653 ft | 11 kts | 73° |
| 2026-05-07 19:47 | 33.37904 | -7.58731 | 652 ft | 13 kts | 73° |
| 2026-05-07 19:47 | 33.37893 | -7.58631 | 653 ft | 13 kts | 123° |
| 2026-05-07 19:47 | 33.37843 | -7.58546 | 652 ft | 12 kts | 126° |
| 2026-05-07 19:48 | 33.37785 | -7.58474 | 652 ft | 12 kts | 161° |
| 2026-05-07 19:48 | 33.37704 | -7.58453 | 652 ft | 12 kts | 167° |
| 2026-05-07 19:48 | 33.37644 | -7.58436 | 652 ft | 7 kts | 166° |
| 2026-05-07 19:48 | 33.37600 | -7.58423 | 652 ft | 6 kts | 166° |
| 2026-05-07 19:49 | 33.37559 | -7.58405 | 652 ft | 6 kts | 135° |
| 2026-05-07 19:49 | 33.37560 | -7.58353 | 654 ft | 6 kts | 78° |
| 2026-05-07 19:49 | 33.37562 | -7.58341 | 654 ft | 1 kts | 78° |
| 2026-05-07 19:49 | 33.37563 | -7.58337 | 653 ft | 0 kts | 78° |